Time;durP1;ratioP1;P1;durP2;ratioP2;P2;SDS_P1;SDS_P2;PMS_P1;PMS_P2;Temp;Humidity;BMP_temperature;BMP_pressure;BME280_temperature;BME280_humidity;BME280_pressure;Samples;Min_cycle;Max_cycle;Signal;HPM_P1;HPM_P2
2023/08/01 00:02:17;;;;;;;18.98;17.45;;;;;;;20.58;58.83;99197.25;4972953;28;97184;-76
2023/08/01 00:04:43;;;;;;;18.70;17.23;;;;;;;20.57;58.85;99203.59;4979117;28;98606;-76
2023/08/01 00:07:08;;;;;;;18.73;17.42;;;;;;;20.60;58.55;99186.47;4988727;28;98644;-76
2023/08/01 00:09:34;;;;;;;19.20;17.63;;;;;;;20.54;58.45;99179.88;4992613;28;96926;-76
2023/08/01 00:11:59;;;;;;;19.00;17.50;;;;;;;20.55;58.68;99182.41;4979496;28;96910;-76
2023/08/01 00:14:25;;;;;;;19.00;17.75;;;;;;;20.51;58.52;99180.16;4982181;28;98619;-76
2023/08/01 00:16:51;;;;;;;20.00;18.27;;;;;;;20.46;58.85;99174.41;4987152;28;98349;-76
2023/08/01 00:19:16;;;;;;;19.13;17.50;;;;;;;20.52;58.67;99176.50;4980061;28;96739;-76
2023/08/01 00:21:42;;;;;;;18.92;17.63;;;;;;;20.42;58.68;99173.84;4980196;28;97065;-76
2023/08/01 00:24:08;;;;;;;19.75;18.27;;;;;;;20.44;58.72;99165.69;4987174;28;98475;-76
2023/08/01 00:26:34;;;;;;;19.90;18.38;;;;;;;20.52;58.42;99163.16;4972862;28;98285;-76
2023/08/01 00:28:59;;;;;;;19.30;17.90;;;;;;;20.41;58.63;99156.16;4978267;28;96907;-76
2023/08/01 00:31:25;;;;;;;20.60;18.67;;;;;;;20.39;58.54;99157.28;4973245;28;96878;-76
2023/08/01 00:33:50;;;;;;;18.92;17.40;;;;;;;20.43;57.92;99148.03;4972899;28;99279;-76
2023/08/01 00:36:16;;;;;;;19.08;17.42;;;;;;;20.38;58.43;99145.78;4988343;28;98985;-76
2023/08/01 00:38:43;;;;;;;17.88;16.65;;;;;;;20.38;58.25;99147.63;4989469;28;96720;-76
2023/08/01 00:41:11;;;;;;;18.40;17.10;;;;;;;20.32;58.44;99141.88;4990619;28;97291;-76
2023/08/01 00:43:37;;;;;;;18.67;17.27;;;;;;;20.30;58.53;99148.31;4987314;28;99103;-76
2023/08/01 00:46:05;;;;;;;19.27;17.88;;;;;;;20.27;58.81;99135.28;4976820;28;100131;-76
2023/08/01 00:48:31;;;;;;;19.13;17.67;;;;;;;20.29;58.76;99138.66;4971487;28;96818;-76
2023/08/01 00:50:58;;;;;;;18.52;17.27;;;;;;;20.23;59.12;99124.06;4979318;28;97072;-76
2023/08/01 00:53:24;;;;;;;19.65;17.80;;;;;;;20.25;58.74;99123.94;4975980;28;99285;-76
2023/08/01 00:55:52;;;;;;;19.30;17.42;;;;;;;20.21;58.96;99119.88;4971681;28;100492;-76
2023/08/01 00:58:18;;;;;;;18.27;17.08;;;;;;;20.19;59.08;99113.84;4973452;28;96635;-76
2023/08/01 01:00:43;;;;;;;19.38;17.67;;;;;;;20.18;59.26;99114.81;4984254;28;97201;-76
2023/08/01 01:03:09;;;;;;;18.25;16.95;;;;;;;20.18;59.29;99112.16;4987509;28;98861;-76
2023/08/01 01:05:36;;;;;;;18.73;17.40;;;;;;;20.07;59.60;99105.16;4984318;28;98701;-76
2023/08/01 01:08:04;;;;;;;19.95;18.17;;;;;;;20.08;59.76;99101.53;4971608;28;96918;-76
2023/08/01 01:10:30;;;;;;;19.27;17.75;;;;;;;20.05;60.02;99099.16;4985925;28;97038;-76
2023/08/01 01:12:55;;;;;;;18.30;17.00;;;;;;;19.94;60.06;99092.16;4976185;28;98807;-76
2023/08/01 01:15:20;;;;;;;18.67;17.38;;;;;;;19.89;60.39;99087.22;4973121;28;98354;-76
2023/08/01 01:17:46;;;;;;;20.33;18.75;;;;;;;19.92;60.21;99087.94;4972480;28;97290;-76
2023/08/01 01:20:12;;;;;;;19.27;17.98;;;;;;;19.90;60.34;99080.94;4979892;28;96939;-76
2023/08/01 01:22:38;;;;;;;20.20;18.23;;;;;;;19.85;60.52;99077.03;4977587;28;100323;-76
2023/08/01 01:25:05;;;;;;;19.98;18.35;;;;;;;19.85;60.49;99077.03;4971150;28;98532;-76
2023/08/01 01:27:30;;;;;;;18.73;17.42;;;;;;;19.82;60.51;99078.16;4984649;28;96886;-76
2023/08/01 01:29:57;;;;;;;20.17;18.45;;;;;;;19.76;60.81;99061.91;4975807;28;97251;-76
2023/08/01 01:32:23;;;;;;;19.98;18.23;;;;;;;19.75;60.93;99069.06;4970656;28;99902;-76
2023/08/01 01:34:48;;;;;;;18.50;17.27;;;;;;;19.69;61.05;99061.59;4974388;28;97125;-76
2023/08/01 01:37:14;;;;;;;20.20;18.70;;;;;;;19.67;60.97;99056.44;4984403;28;97935;-76
2023/08/01 01:39:40;;;;;;;19.52;18.20;;;;;;;19.65;60.91;99054.91;4972504;28;96868;-76
2023/08/01 01:42:06;;;;;;;19.38;17.85;;;;;;;19.71;60.93;99059.66;4979609;28;98931;-76
2023/08/01 01:44:31;;;;;;;19.58;18.17;;;;;;;19.69;60.82;99053.63;4984735;28;98602;-75
2023/08/01 01:46:57;;;;;;;18.58;17.13;;;;;;;19.72;60.87;99050.66;4971631;28;96731;-76
2023/08/01 01:49:22;;;;;;;18.02;16.85;;;;;;;19.67;60.90;99045.78;4970633;28;96865;-76
2023/08/01 01:51:48;;;;;;;18.80;17.60;;;;;;;19.67;60.76;99039.63;4980229;28;99376;-75
2023/08/01 01:54:13;;;;;;;19.38;17.98;;;;;;;19.63;60.99;99033.72;4972821;28;98470;-76
2023/08/01 01:56:39;;;;;;;18.83;17.52;;;;;;;19.59;61.09;99042.94;4984941;28;96828;-76
2023/08/01 01:59:04;;;;;;;19.35;18.00;;;;;;;19.61;60.69;99032.19;4970534;28;97271;-76
2023/08/01 02:01:30;;;;;;;19.90;18.33;;;;;;;19.65;60.64;99026.44;4979407;28;100267;-76
2023/08/01 02:03:55;;;;;;;19.05;17.75;;;;;;;19.64;60.49;99027.41;4972851;28;98678;-75
2023/08/01 02:06:21;;;;;;;18.20;16.95;;;;;;;19.64;60.35;99022.09;4975409;28;96889;-76
2023/08/01 02:08:46;;;;;;;19.33;17.83;;;;;;;19.63;60.36;99024.88;4970642;28;96829;-76
2023/08/01 02:11:12;;;;;;;19.25;17.83;;;;;;;19.73;59.97;99022.25;4970814;28;98368;-76
2023/08/01 02:13:38;;;;;;;18.88;17.67;;;;;;;19.66;60.32;99020.16;4971700;28;97120;-77
2023/08/01 02:16:03;;;;;;;19.35;17.95;;;;;;;19.64;60.46;99013.25;4972420;28;96873;-76
2023/08/01 02:18:29;;;;;;;20.17;18.35;;;;;;;19.65;60.32;99022.94;4974978;28;96864;-76
2023/08/01 02:20:54;;;;;;;18.08;16.65;;;;;;;19.71;60.41;99014.41;4980327;28;100416;-76
2023/08/01 02:23:20;;;;;;;18.67;17.48;;;;;;;19.85;59.85;99013.97;4975586;28;98336;-76
2023/08/01 02:25:45;;;;;;;20.33;18.27;;;;;;;19.82;59.81;99014.25;4970881;28;96938;-76
2023/08/01 02:28:12;;;;;;;19.05;17.63;;;;;;;19.83;60.15;99009.75;4978380;28;97019;-76
2023/08/01 02:30:38;;;;;;;19.08;17.42;;;;;;;19.87;60.10;99005.84;4971867;28;97727;-76
2023/08/01 02:33:03;;;;;;;19.98;18.38;;;;;;;19.87;60.01;99008.50;4970103;28;100702;-75
2023/08/01 02:35:29;;;;;;;18.42;17.23;;;;;;;19.97;59.87;99006.63;4980857;28;97028;-76
2023/08/01 02:37:55;;;;;;;18.88;17.67;;;;;;;19.92;60.04;99005.38;4972698;28;96758;-76
2023/08/01 02:40:21;;;;;;;18.55;17.33;;;;;;;20.00;59.72;98994.88;4971475;28;100838;-75
2023/08/01 02:42:47;;;;;;;19.27;17.88;;;;;;;19.94;60.29;98996.28;4975386;28;98327;-75
2023/08/01 02:45:12;;;;;;;19.05;17.75;;;;;;;20.00;60.19;98987.72;4982143;28;97239;-76
2023/08/01 02:47:38;;;;;;;19.70;18.40;;;;;;;19.92;60.38;98987.59;4969891;28;96819;-75
2023/08/01 02:50:04;;;;;;;19.77;18.40;;;;;;;19.81;61.14;98975.31;4976853;28;98959;-75
2023/08/01 02:52:30;;;;;;;19.38;17.90;;;;;;;19.75;61.39;98983.88;4971474;28;98747;-76
2023/08/01 02:54:55;;;;;;;17.60;16.50;;;;;;;19.70;61.52;98980.78;4971558;28;96682;-76
2023/08/01 02:57:21;;;;;;;19.05;17.65;;;;;;;19.70;61.61;98969.31;4971267;28;96983;-76
2023/08/01 02:59:46;;;;;;;20.23;18.83;;;;;;;19.67;62.03;98976.59;4972376;28;100638;-75
2023/08/01 03:02:12;;;;;;;19.27;17.98;;;;;;;19.68;62.02;98975.59;4971306;28;98749;-75
2023/08/01 03:04:38;;;;;;;19.70;18.02;;;;;;;19.77;61.57;98976.56;4973822;28;97068;-75
2023/08/01 03:07:03;;;;;;;20.63;19.02;;;;;;;19.78;61.52;98978.25;4974490;28;97622;-75
2023/08/01 03:09:29;;;;;;;19.67;18.35;;;;;;;19.89;61.14;98970.06;4970505;28;98545;-76
2023/08/01 03:11:54;;;;;;;20.42;18.92;;;;;;;20.00;60.89;98962.91;4970800;28;98453;-76
2023/08/01 03:14:20;;;;;;;19.83;18.33;;;;;;;19.94;60.59;98958.16;4971729;28;96753;-76
2023/08/01 03:16:46;;;;;;;19.77;18.38;;;;;;;19.88;60.81;98960.41;4971432;28;96928;-76
2023/08/01 03:19:11;;;;;;;19.65;18.17;;;;;;;19.82;60.80;98958.34;4970730;28;99048;-76
2023/08/01 03:21:37;;;;;;;19.35;18.08;;;;;;;19.82;60.65;98962.81;4974797;28;98379;-75
2023/08/01 03:24:03;;;;;;;20.67;19.08;;;;;;;19.78;60.81;98951.63;4973350;28;96849;-76
2023/08/01 03:26:29;;;;;;;20.10;18.60;;;;;;;19.73;60.75;98950.38;4973950;28;97992;-76
2023/08/01 03:28:55;;;;;;;19.25;17.83;;;;;;;19.76;60.66;98950.09;4980934;28;98629;-75
2023/08/01 03:31:22;;;;;;;19.17;17.67;;;;;;;19.81;60.33;98943.34;4974162;28;98874;-76
2023/08/01 03:33:47;;;;;;;20.55;18.73;;;;;;;19.85;60.02;98943.91;4973552;28;96767;-76
2023/08/01 03:36:13;;;;;;;20.15;18.55;;;;;;;19.84;59.97;98940.41;4974499;28;96931;-76
2023/08/01 03:38:39;;;;;;;20.23;18.70;;;;;;;19.88;59.80;98935.63;4978226;28;99223;-75
2023/08/01 03:41:04;;;;;;;20.08;18.58;;;;;;;19.85;60.18;98925.25;4975956;28;98233;-76
2023/08/01 03:43:30;;;;;;;19.48;17.95;;;;;;;19.84;60.20;98929.75;4983404;28;97220;-75
2023/08/01 03:45:55;;;;;;;18.77;17.48;;;;;;;19.81;59.92;98927.38;4974394;28;97199;-76
2023/08/01 03:48:21;;;;;;;18.77;17.58;;;;;;;19.94;59.91;98918.22;4971581;28;97955;-75
2023/08/01 03:50:46;;;;;;;19.73;18.33;;;;;;;19.94;59.48;98927.03;4974183;28;99834;-76
2023/08/01 03:53:12;;;;;;;19.17;17.77;;;;;;;20.07;59.49;98929.38;4974184;28;96761;-76
2023/08/01 03:55:37;;;;;;;20.48;18.98;;;;;;;20.03;59.65;98931.50;4979621;28;96946;-76
2023/08/01 03:58:03;;;;;;;18.77;17.48;;;;;;;19.96;60.26;98930.41;4973288;28;98851;-76
2023/08/01 04:00:33;;;;;;;18.30;17.10;;;;;;;19.95;60.19;98928.72;4974488;28;96766;-76
2023/08/01 04:03:00;;;;;;;19.20;17.88;;;;;;;19.93;60.60;98929.88;4976129;28;96785;-75
2023/08/01 04:05:25;;;;;;;20.42;18.85;;;;;;;19.83;61.06;98929.88;4981954;28;96948;-75
2023/08/01 04:07:54;;;;;;;19.55;18.15;;;;;;;19.79;61.05;98929.34;4980738;28;98936;-76
2023/08/01 04:10:21;;;;;;;20.88;19.27;;;;;;;19.85;61.10;98926.09;4985449;28;98215;-76
2023/08/01 04:12:46;;;;;;;20.27;18.88;;;;;;;19.86;61.16;98929.59;4973363;28;97084;-75
2023/08/01 04:15:12;;;;;;;20.48;19.05;;;;;;;19.83;61.39;98924.56;4974033;28;96679;-75
2023/08/01 04:17:37;;;;;;;19.50;17.92;;;;;;;19.68;62.29;98924.19;4973683;28;99049;-76
2023/08/01 04:20:03;;;;;;;20.02;18.63;;;;;;;19.64;62.45;98923.59;4985657;28;98486;-76
2023/08/01 04:22:29;;;;;;;20.27;18.38;;;;;;;19.66;62.68;98926.13;4987599;28;96751;-75
2023/08/01 04:24:54;;;;;;;21.00;19.42;;;;;;;19.59;63.39;98933.84;4973463;28;96959;-76
2023/08/01 04:27:20;;;;;;;21.20;19.05;;;;;;;19.57;63.81;98932.28;4970881;28;98972;-75
2023/08/01 04:29:46;;;;;;;21.38;19.42;;;;;;;19.61;64.22;98931.03;4980396;28;98588;-75
2023/08/01 04:32:13;;;;;;;19.83;18.48;;;;;;;19.58;64.57;98926.00;4973661;28;98511;-76
2023/08/01 04:34:39;;;;;;;19.40;18.10;;;;;;;19.65;64.85;98935.13;4976605;28;96987;-76
2023/08/01 04:37:05;;;;;;;19.13;17.83;;;;;;;19.66;64.45;98924.34;4987593;28;98687;-76
2023/08/01 04:39:30;;;;;;;21.20;19.52;;;;;;;19.64;65.31;98922.78;4979148;28;98339;-76
2023/08/01 04:41:56;;;;;;;20.10;18.55;;;;;;;19.61;65.52;98921.22;4976668;28;97068;-76
2023/08/01 04:44:21;;;;;;;20.35;18.85;;;;;;;19.51;66.25;98922.22;4987406;28;96860;-75
2023/08/01 04:46:48;;;;;;;21.73;18.85;;;;;;;19.38;67.37;98920.72;4972691;28;98576;-76
2023/08/01 04:49:13;;;;;;;19.27;17.80;;;;;;;19.25;68.16;98914.81;4972417;28;98762;-76
2023/08/01 04:51:39;;;;;;;20.08;18.52;;;;;;;19.16;68.57;98918.34;4979981;28;96597;-76
2023/08/01 04:54:04;;;;;;;20.17;18.75;;;;;;;19.06;69.03;98920.19;4975384;28;96753;-76
2023/08/01 04:56:30;;;;;;;20.67;18.50;;;;;;;19.03;69.35;98917.78;4972070;28;98750;-76
2023/08/01 04:58:55;;;;;;;19.67;18.35;;;;;;;19.07;68.89;98913.88;4972378;28;98400;-76
2023/08/01 05:01:21;;;;;;;20.02;18.63;;;;;;;19.08;69.10;98916.41;4980908;28;96712;-76
2023/08/01 05:03:46;;;;;;;21.15;19.65;;;;;;;19.13;69.14;98918.63;4976888;28;96934;-76
2023/08/01 05:06:12;;;;;;;20.05;18.35;;;;;;;19.13;69.04;98911.47;4983415;28;98909;-76
2023/08/01 05:08:37;;;;;;;19.50;17.90;;;;;;;19.16;69.12;98911.19;4987749;28;99037;-76
2023/08/01 05:11:03;;;;;;;21.25;19.30;;;;;;;19.17;69.64;98906.75;4991427;28;96667;-76
2023/08/01 05:13:28;;;;;;;22.55;20.60;;;;;;;19.29;68.62;98910.09;4973742;28;97250;-76
2023/08/01 05:15:54;;;;;;;20.67;19.08;;;;;;;19.23;69.05;98904.34;4972799;28;98758;-76
2023/08/01 05:18:19;;;;;;;20.77;19.27;;;;;;;19.17;69.87;98899.59;4983044;28;98775;-76
2023/08/01 05:20:45;;;;;;;20.58;19.17;;;;;;;19.15;70.10;98895.41;4981516;28;96906;-75
2023/08/01 05:23:10;;;;;;;20.15;18.50;;;;;;;19.11;70.28;98892.19;4978459;28;96635;-75
2023/08/01 05:25:36;;;;;;;22.20;20.40;;;;;;;19.01;71.17;98891.34;4986529;28;98956;-76
2023/08/01 05:28:01;;;;;;;22.05;20.08;;;;;;;19.02;71.39;98882.38;4977428;28;98475;-75
2023/08/01 05:30:27;;;;;;;22.70;21.00;;;;;;;18.96;71.72;98882.94;4978524;28;96678;-75
2023/08/01 05:32:53;;;;;;;20.88;19.42;;;;;;;18.93;71.91;98877.91;4979183;28;96793;-76
2023/08/01 05:35:20;;;;;;;21.00;19.40;;;;;;;18.91;72.45;98888.69;4984203;28;98754;-75
2023/08/01 05:37:45;;;;;;;21.25;19.48;;;;;;;18.91;72.73;98886.03;4981601;28;98335;-76
2023/08/01 05:40:11;;;;;;;21.02;19.40;;;;;;;18.94;72.18;98892.88;4982899;28;96956;-76
2023/08/01 05:42:37;;;;;;;20.60;19.00;;;;;;;18.95;72.72;98889.25;4976377;28;98143;-76
2023/08/01 05:45:03;;;;;;;21.20;19.60;;;;;;;18.96;73.08;98890.91;4983480;28;99370;-75
2023/08/01 05:47:29;;;;;;;20.65;19.15;;;;;;;18.97;73.40;98884.63;4983524;28;98357;-76
2023/08/01 05:49:55;;;;;;;20.17;18.67;;;;;;;18.97;73.57;98889.94;4975748;28;96714;-76
2023/08/01 05:52:20;;;;;;;20.15;18.65;;;;;;;18.93;74.03;98881.38;4972075;28;96779;-75
2023/08/01 05:54:46;;;;;;;20.48;19.08;;;;;;;18.93;74.13;98880.56;4976592;28;98576;-75
2023/08/01 05:57:11;;;;;;;21.30;19.65;;;;;;;18.91;74.67;98885.19;4973197;28;98710;-76
2023/08/01 05:59:37;;;;;;;21.58;19.52;;;;;;;18.85;75.07;98877.75;4976529;28;97137;-76
2023/08/01 06:02:03;;;;;;;20.77;19.10;;;;;;;18.82;75.50;98878.91;4977080;28;96869;-76
2023/08/01 06:04:28;;;;;;;21.15;19.40;;;;;;;18.83;75.30;98877.06;4975453;28;98708;-76
2023/08/01 06:06:54;;;;;;;21.23;19.73;;;;;;;18.82;75.56;98872.72;4979251;28;98443;-76
2023/08/01 06:09:19;;;;;;;20.92;19.30;;;;;;;18.83;75.76;98871.75;4975702;28;97309;-76
2023/08/01 06:11:45;;;;;;;21.30;19.70;;;;;;;18.88;76.37;98873.00;4980753;28;96790;-76
2023/08/01 06:14:10;;;;;;;20.50;19.10;;;;;;;18.97;76.34;98868.69;4971382;28;98521;-76
2023/08/01 06:16:36;;;;;;;21.63;19.75;;;;;;;19.00;75.94;98865.72;4972554;28;98389;-76
2023/08/01 06:19:02;;;;;;;20.85;19.30;;;;;;;18.93;75.85;98861.94;4975117;28;96802;-76
2023/08/01 06:21:28;;;;;;;21.20;19.35;;;;;;;18.91;76.15;98864.75;4975919;28;96796;-76
2023/08/01 06:23:53;;;;;;;21.13;18.98;;;;;;;18.89;76.46;98860.56;4978364;28;97666;-76
2023/08/01 06:26:19;;;;;;;20.95;19.27;;;;;;;18.92;76.03;98858.44;4975924;28;98856;-76
2023/08/01 06:28:44;;;;;;;22.17;20.23;;;;;;;18.87;76.19;98855.38;4975401;28;98403;-76
2023/08/01 06:31:10;;;;;;;22.13;20.02;;;;;;;18.87;76.24;98843.91;4972072;28;96784;-76
2023/08/01 06:33:35;;;;;;;20.90;19.25;;;;;;;18.99;75.81;98846.28;4970812;28;98966;-76
2023/08/01 06:36:01;;;;;;;21.90;20.48;;;;;;;19.04;74.94;98850.31;4979233;28;98213;-76
2023/08/01 06:38:26;;;;;;;22.00;20.10;;;;;;;19.06;75.01;98845.72;4975497;28;96785;-76
2023/08/01 06:40:52;;;;;;;19.83;18.33;;;;;;;19.05;74.73;98849.34;4971247;28;97262;-76
2023/08/01 06:43:17;;;;;;;19.45;18.05;;;;;;;18.98;74.69;98833.13;4979684;28;98761;-76
2023/08/01 06:45:43;;;;;;;20.98;19.45;;;;;;;19.01;74.44;98824.84;4987020;28;98286;-76
2023/08/01 06:48:08;;;;;;;20.13;18.65;;;;;;;19.01;74.43;98822.19;4979070;28;97408;-76
2023/08/01 06:50:34;;;;;;;20.77;19.17;;;;;;;19.01;74.64;98827.53;4978130;28;96833;-76
2023/08/01 06:53:00;;;;;;;20.23;18.63;;;;;;;19.04;74.30;98821.91;4979411;28;98610;-76
2023/08/01 06:55:26;;;;;;;21.20;19.40;;;;;;;19.03;73.91;98825.56;4976878;28;98161;-76
2023/08/01 06:57:52;;;;;;;20.25;18.90;;;;;;;19.04;74.05;98823.75;4977121;28;96849;-76
2023/08/01 07:00:17;;;;;;;20.15;18.70;;;;;;;18.97;74.62;98818.16;4974208;28;97747;-76
2023/08/01 07:02:43;;;;;;;20.98;19.25;;;;;;;18.97;74.74;98819.00;4978333;28;98102;-76
2023/08/01 07:05:08;;;;;;;21.58;19.75;;;;;;;19.05;74.11;98817.44;4976556;28;98538;-75
2023/08/01 07:07:34;;;;;;;21.63;20.00;;;;;;;19.06;74.38;98819.97;4981493;28;97238;-76
2023/08/01 07:09:59;;;;;;;21.50;19.77;;;;;;;19.03;74.12;98817.59;4975113;28;97001;-76
2023/08/01 07:12:25;;;;;;;20.98;19.33;;;;;;;19.04;74.83;98818.41;4974310;28;98663;-76
2023/08/01 07:14:51;;;;;;;21.90;20.20;;;;;;;19.09;74.77;98818.84;4979003;28;98371;-76
2023/08/01 07:17:16;;;;;;;21.67;19.90;;;;;;;19.05;74.72;98817.44;4982044;28;96736;-75
2023/08/01 07:19:42;;;;;;;21.88;20.05;;;;;;;19.05;75.08;98810.28;4974459;28;97234;-80
2023/08/01 07:22:08;;;;;;;20.88;19.38;;;;;;;19.09;75.05;98811.69;4978130;28;98568;-76
2023/08/01 07:24:33;;;;;;;21.02;19.40;;;;;;;19.09;75.27;98803.72;4986991;28;98643;-75
2023/08/01 07:26:59;;;;;;;21.02;19.48;;;;;;;19.15;75.13;98802.31;4974780;28;96765;-76
2023/08/01 07:29:24;;;;;;;22.23;20.42;;;;;;;19.20;75.07;98800.91;4983597;28;96824;-76
2023/08/01 07:31:50;;;;;;;21.60;19.55;;;;;;;19.31;74.69;98802.53;4991244;28;99060;-75
2023/08/01 07:34:15;;;;;;;21.23;19.63;;;;;;;19.25;74.70;98792.47;4983482;28;98723;-76
2023/08/01 07:36:41;;;;;;;21.05;19.35;;;;;;;19.28;74.70;98800.16;4993158;28;96730;-75
2023/08/01 07:39:07;;;;;;;21.00;19.38;;;;;;;19.35;74.70;98793.28;4983931;28;96862;-76
2023/08/01 07:41:34;;;;;;;20.80;19.20;;;;;;;19.43;74.42;98785.44;4973349;28;98597;-76
2023/08/01 07:44:01;;;;;;;21.10;19.52;;;;;;;19.62;74.15;98778.34;4987839;28;98592;-76
2023/08/01 07:46:27;;;;;;;21.85;19.75;;;;;;;19.58;74.09;98779.63;4975514;28;96730;-75
2023/08/01 07:48:54;;;;;;;21.02;19.42;;;;;;;19.62;73.78;98778.34;4986727;28;96880;-75
2023/08/01 07:51:19;;;;;;;21.85;20.25;;;;;;;19.62;73.89;98775.69;4976440;28;99023;-75
2023/08/01 07:53:44;;;;;;;21.02;19.30;;;;;;;19.63;73.29;98780.88;4976575;28;98532;-76
2023/08/01 07:56:10;;;;;;;21.65;19.75;;;;;;;19.68;73.30;98773.28;4983269;28;96971;-75
2023/08/01 07:58:36;;;;;;;20.98;19.38;;;;;;;19.80;73.00;98767.78;4977074;28;97960;-75
2023/08/01 08:01:06;;;;;;;22.13;20.08;;;;;;;19.76;73.09;98759.25;4971884;28;99187;-76
2023/08/01 08:03:31;;;;;;;22.85;20.95;;;;;;;19.66;74.04;98766.44;4971740;28;98391;-76
2023/08/01 08:05:58;;;;;;;21.30;19.55;;;;;;;19.65;73.15;98765.59;4986347;28;97045;-76
2023/08/01 08:08:23;;;;;;;21.10;19.50;;;;;;;19.66;73.34;98759.31;4976298;28;97193;-76
2023/08/01 08:10:49;;;;;;;22.05;20.20;;;;;;;19.75;71.91;98762.03;4972387;28;98766;-76
2023/08/01 08:13:14;;;;;;;21.02;19.52;;;;;;;19.63;73.16;98756.06;4973023;28;98554;-76
2023/08/01 08:15:41;;;;;;;20.42;19.05;;;;;;;19.65;72.87;98751.47;4982528;28;96714;-76
2023/08/01 08:18:06;;;;;;;21.92;20.02;;;;;;;19.73;73.04;98745.41;4972349;28;96983;-76
2023/08/01 08:20:40;;;;;;;21.42;19.75;;;;;;;19.79;73.47;98742.97;4981693;28;98935;-75
2023/08/01 08:23:05;;;;;;;21.08;19.50;;;;;;;19.97;72.40;98726.19;4979396;28;99996;-76
2023/08/01 08:25:31;;;;;;;21.02;19.13;;;;;;;19.91;72.66;98727.63;4973585;28;98231;-76
2023/08/01 08:27:56;;;;;;;21.23;19.30;;;;;;;20.00;73.21;98731.22;4976604;28;97228;-76
2023/08/01 08:30:22;;;;;;;21.65;19.77;;;;;;;19.99;73.05;98718.91;4980027;28;98167;-76
2023/08/01 08:32:47;;;;;;;20.85;19.35;;;;;;;20.03;72.22;98706.94;4985766;28;98330;-75
2023/08/01 08:35:13;;;;;;;20.33;18.92;;;;;;;20.02;72.19;98708.78;4974524;28;96841;-75
2023/08/01 08:37:38;;;;;;;20.48;19.15;;;;;;;19.95;72.22;98707.69;4976284;28;97799;-75
2023/08/01 08:40:04;;;;;;;20.58;18.95;;;;;;;19.85;73.10;98713.09;4972246;28;98864;-75
2023/08/01 08:42:34;;;;;;;20.30;18.90;;;;;;;19.86;73.42;98716.59;4972948;28;98281;-75
2023/08/01 08:45:01;;;;;;;21.17;19.67;;;;;;;19.86;72.75;98711.25;4972376;28;96712;-76
2023/08/01 08:47:27;;;;;;;21.80;19.85;;;;;;;19.88;72.89;98707.47;4978554;28;96741;-75
2023/08/01 08:49:58;;;;;;;20.73;19.13;;;;;;;19.90;71.40;98712.66;4972731;28;99019;-76
2023/08/01 08:52:25;;;;;;;20.13;18.75;;;;;;;19.82;70.93;98718.72;4979815;28;97806;-76
2023/08/01 08:54:51;;;;;;;20.40;19.08;;;;;;;19.78;72.03;98719.16;4980709;28;97683;-76
2023/08/01 08:57:19;;;;;;;22.00;20.15;;;;;;;19.84;72.47;98711.44;4973980;28;96924;-76
2023/08/01 08:59:46;;;;;;;21.27;19.73;;;;;;;19.88;72.54;98702.13;4972384;28;99053;-76
2023/08/01 09:02:13;;;;;;;20.63;19.13;;;;;;;19.97;72.61;98711.03;4977552;28;98354;-82
2023/08/01 09:04:39;;;;;;;21.05;19.35;;;;;;;20.09;71.71;98698.34;4973003;28;98616;-76
2023/08/01 09:07:08;;;;;;;21.05;19.45;;;;;;;20.11;72.10;98707.03;4975521;28;96876;-80
2023/08/01 09:09:34;;;;;;;20.77;19.13;;;;;;;20.15;71.88;98712.88;4978419;28;99118;-81
2023/08/01 09:12:00;;;;;;;20.40;18.98;;;;;;;20.15;71.49;98707.56;4973909;28;98770;-80
2023/08/01 09:14:25;;;;;;;21.45;19.65;;;;;;;20.19;71.58;98711.56;4972965;28;97106;-80
2023/08/01 09:16:51;;;;;;;22.83;21.10;;;;;;;20.18;71.21;98707.25;4975046;28;97167;-80
2023/08/01 09:19:21;;;;;;;21.85;19.98;;;;;;;20.26;71.05;98716.16;4978529;28;99601;-79
2023/08/01 09:21:47;;;;;;;20.80;19.23;;;;;;;20.21;71.23;98715.75;4981136;28;98322;-80
2023/08/01 09:24:18;;;;;;;20.02;18.63;;;;;;;20.19;71.02;98709.78;4982631;28;97724;-79
2023/08/01 09:26:44;;;;;;;20.07;18.50;;;;;;;20.18;71.20;98705.41;4973938;28;100419;-81
2023/08/01 09:29:10;;;;;;;21.15;19.23;;;;;;;20.16;71.45;98710.09;4961353;28;98839;-78
2023/08/01 09:31:40;;;;;;;21.67;19.90;;;;;;;20.12;71.81;98709.53;4953517;28;97870;-78
2023/08/01 09:34:17;;;;;;;20.45;18.83;;;;;;;20.13;70.78;98699.72;4952673;28;97278;-79
2023/08/01 09:36:42;;;;;;;20.42;18.92;;;;;;;20.11;71.69;98699.03;4951145;28;97196;-80
2023/08/01 09:39:08;;;;;;;20.73;19.13;;;;;;;20.11;70.69;98693.72;4960370;28;99044;-79
2023/08/01 09:41:33;;;;;;;20.70;19.08;;;;;;;20.15;71.36;98694.25;4959454;28;98985;-80
2023/08/01 09:43:59;;;;;;;20.80;19.38;;;;;;;20.23;71.50;98684.50;4964584;28;97018;-78
2023/08/01 09:46:25;;;;;;;21.02;19.58;;;;;;;20.27;70.39;98688.50;4961524;28;97034;-78
2023/08/01 09:48:50;;;;;;;19.75;18.42;;;;;;;20.30;69.60;98680.25;4949745;28;99120;-77
2023/08/01 09:51:17;;;;;;;21.83;20.08;;;;;;;20.32;70.34;98685.41;4959796;28;98476;-77
2023/08/01 09:53:52;;;;;;;21.15;19.75;;;;;;;20.30;71.03;98682.91;4952801;28;96800;-77
2023/08/01 09:56:23;;;;;;;21.25;19.85;;;;;;;20.46;69.73;98674.19;4963276;28;96978;-77
2023/08/01 09:58:50;;;;;;;19.90;18.40;;;;;;;20.52;69.92;98673.59;4962897;28;98696;-77
2023/08/01 10:01:17;;;;;;;19.92;18.52;;;;;;;20.60;68.99;98677.31;4953439;28;98592;-77
2023/08/01 10:03:47;;;;;;;19.90;18.40;;;;;;;20.57;69.35;98681.13;4955726;28;96744;-77
2023/08/01 10:06:20;;;;;;;19.75;18.38;;;;;;;20.55;68.82;98669.78;4950276;28;97206;-78
2023/08/01 10:08:47;;;;;;;19.83;18.40;;;;;;;20.63;68.76;98663.69;4949419;28;99191;-77
2023/08/01 10:11:14;;;;;;;19.73;18.33;;;;;;;20.76;68.38;98658.75;4959592;28;98786;-77
2023/08/01 10:13:42;;;;;;;19.85;18.25;;;;;;;20.97;68.36;98655.69;4955429;28;97014;-78
2023/08/01 10:16:07;;;;;;;18.52;17.10;;;;;;;21.03;67.95;98645.25;4951705;28;96932;-80
2023/08/01 10:18:34;;;;;;;20.13;18.83;;;;;;;21.20;66.74;98639.97;4952838;28;99393;-77
2023/08/01 10:21:00;;;;;;;20.15;18.65;;;;;;;21.27;66.15;98643.69;4953252;28;98623;-78
2023/08/01 10:23:26;;;;;;;19.88;18.42;;;;;;;21.32;65.78;98638.72;4963263;28;96805;-78
2023/08/01 10:25:52;;;;;;;19.98;18.55;;;;;;;21.32;65.75;98646.72;4950214;28;96794;-78
2023/08/01 10:28:18;;;;;;;20.50;18.63;;;;;;;21.22;65.88;98644.16;4967001;28;98598;-79
2023/08/01 10:30:44;;;;;;;20.80;19.20;;;;;;;21.13;65.45;98642.47;4975038;28;98769;-78
2023/08/01 10:33:12;;;;;;;20.67;18.63;;;;;;;21.09;65.86;98641.13;4975945;28;96751;-78
2023/08/01 10:35:39;;;;;;;20.75;18.98;;;;;;;21.05;65.83;98634.41;4977875;28;96831;-79
2023/08/01 10:38:10;;;;;;;20.27;18.40;;;;;;;21.20;65.43;98635.47;4980516;28;99014;-77
2023/08/01 10:40:41;;;;;;;21.08;19.17;;;;;;;21.16;65.15;98631.47;4970213;28;98318;-77
2023/08/01 10:43:20;;;;;;;19.73;18.48;;;;;;;21.18;64.15;98633.97;4975501;28;97083;-77
2023/08/01 10:45:45;;;;;;;19.77;18.48;;;;;;;21.09;64.31;98633.13;4984890;28;96692;-77
2023/08/01 10:48:11;;;;;;;20.48;18.60;;;;;;;21.15;63.93;98635.13;4971000;28;100922;-78
2023/08/01 10:50:37;;;;;;;20.90;18.98;;;;;;;21.12;64.49;98646.13;4973435;28;97723;-79
2023/08/01 10:53:05;;;;;;;20.20;18.25;;;;;;;21.09;64.42;98635.78;4974969;28;96768;-70
2023/08/01 10:55:41;;;;;;;19.08;17.70;;;;;;;21.16;63.83;98639.47;4968825;28;97442;-81
2023/08/01 10:58:06;;;;;;;19.25;17.95;;;;;;;21.06;64.39;98632.56;4969934;28;98777;-78
2023/08/01 11:00:32;;;;;;;20.27;18.48;;;;;;;21.07;63.56;98627.09;4970093;28;98675;-78
2023/08/01 11:02:57;;;;;;;18.70;17.40;;;;;;;21.08;63.49;98636.75;4969064;28;96598;-78
2023/08/01 11:05:23;;;;;;;18.77;17.48;;;;;;;21.03;63.79;98637.25;4970901;28;96893;-80
2023/08/01 11:07:57;;;;;;;18.77;17.48;;;;;;;21.09;63.62;98627.78;4977790;28;99144;-78
2023/08/01 11:10:27;;;;;;;19.50;18.20;;;;;;;20.98;64.11;98618.22;4969143;28;98446;-78
2023/08/01 11:12:53;;;;;;;18.88;17.50;;;;;;;20.94;64.30;98618.69;4972352;28;96899;-79